createdAt,value
2024-04-11T00:00:52.451Z,61.78
2024-04-11T00:06:15.043Z,56.67
2024-04-11T00:11:19.623Z,58.55
2024-04-11T00:16:22.328Z,59.67
2024-04-11T00:21:25.067Z,61.19
2024-04-11T00:26:27.951Z,67.80
2024-04-11T00:31:30.454Z,64.50
2024-04-11T00:36:33.784Z,57.27
2024-04-11T00:41:37.634Z,57.33
2024-04-11T00:46:41.497Z,59.22
2024-04-11T00:51:45.008Z,60.94
2024-04-11T00:56:47.590Z,67.79
2024-04-11T01:01:50.183Z,64.30
2024-04-11T01:07:08.005Z,57.72
2024-04-11T01:12:15.092Z,58.28
2024-04-11T01:17:19.336Z,60.22
2024-04-11T01:22:22.344Z,61.74
2024-04-11T01:27:25.250Z,67.64
2024-04-11T01:32:29.128Z,64.67
2024-04-11T01:37:32.213Z,59.42
2024-04-11T01:42:35.301Z,57.84
2024-04-11T01:47:40.860Z,62.10
2024-04-11T01:52:43.624Z,63.26
2024-04-11T01:57:46.144Z,60.37
2024-04-11T02:02:50.675Z,55.94
2024-04-11T02:07:53.466Z,59.27
2024-04-11T02:12:58.185Z,63.95
2024-04-11T02:18:03.005Z,62.30
2024-04-11T02:23:08.350Z,56.82
2024-04-11T02:28:10.795Z,57.90
2024-04-11T02:33:13.519Z,61.70
2024-04-11T02:38:16.230Z,65.38
2024-04-11T02:43:19.486Z,62.70
2024-04-11T02:48:22.190Z,57.89
2024-04-11T02:53:24.876Z,58.09
2024-04-11T02:58:28.758Z,62.40
2024-04-11T03:03:35.628Z,67.26
2024-04-11T03:08:42.509Z,62.36
2024-04-11T03:13:45.104Z,57.99
2024-04-11T03:18:47.743Z,58.30
2024-04-11T03:23:51.457Z,62.34
2024-04-11T03:28:54.317Z,67.37
2024-04-11T03:33:58.673Z,63.02
2024-04-11T03:39:02.726Z,59.04
2024-04-11T03:44:05.425Z,57.09
2024-04-11T03:49:07.960Z,60.78
2024-04-11T03:54:13.015Z,67.47
2024-04-11T03:59:15.461Z,65.31
2024-04-11T04:04:20.681Z,60.76
2024-04-11T04:09:23.221Z,57.06
2024-04-11T04:14:26.058Z,59.85
2024-04-11T04:19:28.621Z,62.35
2024-04-11T04:24:31.236Z,69.43
2024-04-11T04:29:39.051Z,64.04
2024-04-11T04:34:41.917Z,59.15
2024-04-11T04:39:45.941Z,57.64
2024-04-11T04:44:49.230Z,60.78
2024-04-11T04:49:54.495Z,67.23
2024-04-11T04:54:56.963Z,63.57
2024-04-11T04:59:59.556Z,57.78
2024-04-11T05:05:04.810Z,57.91
2024-04-11T05:10:07.475Z,62.02
2024-04-11T05:15:13.860Z,65.04
2024-04-11T05:20:24.470Z,58.07
2024-04-11T05:25:33.439Z,57.42
2024-04-11T05:30:41.813Z,60.11
2024-04-11T05:35:44.448Z,65.57
2024-04-11T05:40:47.609Z,60.61
2024-04-11T05:45:51.258Z,55.70
2024-04-11T05:50:53.917Z,58.08
2024-04-11T05:55:58.684Z,60.42
2024-04-11T06:01:07.114Z,64.15
2024-04-11T06:06:14.359Z,56.32
2024-04-11T06:11:18.616Z,56.97
2024-04-11T06:16:23.851Z,59.99
2024-04-11T06:21:34.019Z,62.13
2024-04-11T06:26:37.908Z,54.70
2024-04-11T06:31:41.606Z,54.48
2024-04-11T06:36:48.924Z,56.03
2024-04-11T06:41:53.002Z,57.32
2024-04-11T06:46:55.626Z,59.99
2024-04-11T06:51:58.465Z,58.58
2024-04-11T06:57:04.482Z,59.26
2024-04-11T07:02:10.665Z,62.82
2024-04-11T07:07:13.249Z,57.56
2024-04-11T07:12:29.316Z,54.54
2024-04-11T07:17:33.929Z,55.22
2024-04-11T07:22:45.310Z,56.97
2024-04-11T07:27:47.888Z,57.95
2024-04-11T07:32:52.929Z,58.91
2024-04-11T07:37:58.414Z,59.27
2024-04-11T07:43:09.631Z,58.21
2024-04-11T07:48:19.006Z,59.38
2024-04-11T07:53:27.321Z,59.52
2024-04-11T07:58:30.035Z,59.34
2024-04-11T08:03:35.845Z,58.43
2024-04-11T08:08:38.761Z,58.01
2024-04-11T08:13:43.414Z,58.47
2024-04-11T08:18:48.299Z,57.82
2024-04-11T08:23:51.076Z,56.55
2024-04-11T08:28:56.847Z,55.20
2024-04-11T08:33:59.629Z,54.25
2024-04-11T08:39:05.820Z,53.62
2024-04-11T08:44:08.765Z,52.00
2024-04-11T08:49:11.815Z,51.28
2024-04-11T08:54:17.634Z,50.14
2024-04-11T08:59:25.066Z,49.97
2024-04-11T09:04:29.198Z,47.61
2024-04-11T09:09:32.533Z,49.96
2024-04-11T09:14:36.254Z,50.47
2024-04-11T09:19:41.507Z,49.62
2024-04-11T09:24:45.269Z,49.45
2024-04-11T09:29:48.077Z,47.40
2024-04-11T09:34:54.420Z,46.36
2024-04-11T09:39:58.267Z,45.21
2024-04-11T09:45:04.600Z,44.61
2024-04-11T09:50:10.784Z,44.04
2024-04-11T09:55:16.512Z,43.00
2024-04-11T10:00:38.034Z,44.39
2024-04-11T10:05:47.604Z,42.60
2024-04-11T10:10:59.430Z,40.79
2024-04-11T10:16:05.992Z,41.38
2024-04-11T10:21:13.106Z,43.68
2024-04-11T10:26:16.125Z,43.81
2024-04-11T10:31:23.464Z,44.06
2024-04-11T10:36:34.965Z,44.02
2024-04-11T10:41:39.061Z,44.10
2024-04-11T10:46:42.423Z,44.56
2024-04-11T10:51:51.937Z,44.14
2024-04-11T10:56:55.738Z,42.59
2024-04-11T11:02:10.705Z,42.68
2024-04-11T11:07:14.588Z,41.67
2024-04-11T11:12:17.957Z,42.06
2024-04-11T11:17:22.054Z,40.77
2024-04-11T11:22:40.172Z,40.65
2024-04-11T11:27:51.430Z,38.16
2024-04-11T11:33:20.617Z,38.73
2024-04-11T11:38:36.136Z,38.37
2024-04-11T11:44:00.392Z,38.41
2024-04-11T11:49:04.870Z,38.63
2024-04-11T11:54:13.852Z,39.28
2024-04-11T11:59:21.206Z,38.54
2024-04-11T12:04:24.269Z,37.40
2024-04-11T12:09:32.716Z,37.03
2024-04-11T12:14:36.459Z,38.04
2024-04-11T12:19:41.398Z,37.63
2024-04-11T12:24:46.182Z,37.13
2024-04-11T12:29:50.232Z,36.62
2024-04-11T12:34:56.506Z,37.00
2024-04-11T12:39:59.174Z,37.55
2024-04-11T12:45:09.016Z,38.82
2024-04-11T12:50:16.202Z,39.03
2024-04-11T12:55:25.596Z,38.68
2024-04-11T13:00:43.838Z,37.40
2024-04-11T13:05:52.932Z,37.61
2024-04-11T13:10:56.488Z,37.78
2024-04-11T13:16:01.786Z,38.27
2024-04-11T13:21:15.244Z,37.44
2024-04-11T13:26:18.649Z,37.46
2024-04-11T13:31:22.127Z,36.16
2024-04-11T13:36:25.594Z,36.91
2024-04-11T13:41:49.363Z,37.03
2024-04-11T13:46:52.337Z,37.44
2024-04-11T13:51:55.258Z,37.81
2024-04-11T13:57:01.813Z,38.49
2024-04-11T14:02:10.895Z,38.99
2024-04-11T14:07:20.802Z,38.07
2024-04-11T14:12:25.805Z,38.05
2024-04-11T14:17:29.496Z,37.19
2024-04-11T14:22:37.145Z,36.59
2024-04-11T14:27:39.911Z,37.15
2024-04-11T14:32:51.581Z,34.86
2024-04-11T14:37:57.281Z,34.73
2024-04-11T14:43:04.467Z,34.70
2024-04-11T14:48:23.682Z,34.36
2024-04-11T14:53:26.797Z,33.96
2024-04-11T14:58:32.911Z,33.71
2024-04-11T15:03:42.288Z,34.19
2024-04-11T15:08:49.761Z,34.17
2024-04-11T15:13:54.640Z,35.03
2024-04-11T15:18:57.435Z,35.80
2024-04-11T15:24:00.769Z,36.23
2024-04-11T15:29:13.371Z,36.65
2024-04-11T15:34:18.020Z,36.23
2024-04-11T15:39:29.641Z,35.86
2024-04-11T15:44:38.399Z,35.93
2024-04-11T15:49:45.437Z,36.06
2024-04-11T15:55:12.789Z,37.14
2024-04-11T16:00:28.348Z,38.40
2024-04-11T16:05:35.652Z,39.59
2024-04-11T16:10:40.069Z,40.68
2024-04-11T16:15:44.806Z,41.21
2024-04-11T16:20:50.347Z,41.81
2024-04-11T16:25:57.389Z,43.05
2024-04-11T16:31:23.150Z,43.69
2024-04-11T16:36:31.554Z,44.05
2024-04-11T16:41:40.752Z,45.35
2024-04-11T16:46:52.449Z,45.17
2024-04-11T16:51:55.050Z,45.59
2024-04-11T16:56:58.678Z,46.01
2024-04-11T17:02:04.066Z,45.78
2024-04-11T17:07:19.483Z,46.52
2024-04-11T17:12:31.112Z,46.18
2024-04-11T17:17:36.585Z,46.28
2024-04-11T17:22:51.556Z,47.14
2024-04-11T17:28:13.268Z,47.08
2024-04-11T17:33:32.371Z,47.36
2024-04-11T17:38:48.978Z,48.06
2024-04-11T17:43:57.436Z,47.63
2024-04-11T17:49:17.196Z,47.59
2024-04-11T17:54:20.010Z,49.60
2024-04-11T17:59:30.776Z,49.73
2024-04-11T18:04:38.088Z,49.75
2024-04-11T18:09:44.822Z,50.49
2024-04-11T18:14:47.731Z,50.72
2024-04-11T18:19:57.598Z,50.63
2024-04-11T18:25:07.394Z,50.95
2024-04-11T18:30:16.898Z,49.75
2024-04-11T18:35:19.840Z,50.62
2024-04-11T18:40:25.025Z,51.01
2024-04-11T18:45:37.248Z,51.34
2024-04-11T18:50:39.953Z,51.16
2024-04-11T18:55:50.510Z,51.12
2024-04-11T19:00:58.333Z,52.56
2024-04-11T19:06:06.325Z,52.12
2024-04-11T19:11:09.968Z,52.93
2024-04-11T19:16:19.717Z,52.54
2024-04-11T19:21:23.466Z,52.85
2024-04-11T19:26:28.029Z,52.95
2024-04-11T19:31:33.748Z,52.43
2024-04-11T19:36:38.686Z,53.11
2024-04-11T19:41:43.436Z,53.33
2024-04-11T19:46:47.234Z,54.47
2024-04-11T19:51:51.531Z,53.42
2024-04-11T19:57:06.767Z,53.33
2024-04-11T20:02:10.634Z,53.21
2024-04-11T20:07:18.042Z,54.04
2024-04-11T20:12:29.688Z,54.48
2024-04-11T20:17:32.861Z,54.33
2024-04-11T20:22:37.836Z,54.20
2024-04-11T20:27:47.785Z,54.51
2024-04-11T20:32:52.200Z,54.78
2024-04-11T20:38:17.045Z,55.37
2024-04-11T20:43:37.812Z,54.99
2024-04-11T20:48:57.109Z,55.45
2024-04-11T20:54:20.883Z,55.90
2024-04-11T20:59:43.104Z,56.15
2024-04-11T21:05:04.348Z,55.93
2024-04-11T21:10:26.073Z,56.03
2024-04-11T21:15:47.971Z,55.64
2024-04-11T21:21:09.306Z,56.95
2024-04-11T21:26:30.715Z,57.02
2024-04-11T21:31:53.839Z,57.10
2024-04-11T21:37:03.803Z,57.27
2024-04-11T21:42:09.717Z,57.03
2024-04-11T21:47:15.131Z,57.13
2024-04-11T21:52:20.324Z,56.84
2024-04-11T21:57:27.787Z,56.85
2024-04-11T22:02:30.905Z,57.58
2024-04-11T22:07:35.460Z,57.35
2024-04-11T22:12:42.566Z,57.49
2024-04-11T22:17:53.381Z,57.13
2024-04-11T22:23:01.094Z,56.85
2024-04-11T22:28:03.955Z,56.66
2024-04-11T22:33:18.923Z,56.71
2024-04-11T22:38:26.496Z,56.82
2024-04-11T22:43:35.928Z,56.78
2024-04-11T22:48:45.014Z,56.73
2024-04-11T22:53:50.730Z,56.75
2024-04-11T22:58:59.899Z,56.68
2024-04-11T23:04:02.485Z,56.60
2024-04-11T23:09:10.523Z,57.44
2024-04-11T23:14:13.095Z,57.99
2024-04-11T23:19:20.932Z,58.07
2024-04-11T23:24:23.444Z,57.50
2024-04-11T23:29:35.605Z,57.81
2024-04-11T23:34:39.501Z,57.81
2024-04-11T23:39:44.234Z,58.11
2024-04-11T23:44:48.790Z,58.36
2024-04-11T23:49:51.259Z,58.50
2024-04-11T23:54:53.792Z,58.72
2024-04-11T23:59:56.403Z,58.98
